Time;durP1;ratioP1;P1;durP2;ratioP2;P2;SDS_P1;SDS_P2;PMS_P1;PMS_P2;Temp;Humidity;BMP_temperature;BMP_pressure;BME280_temperature;BME280_humidity;BME280_pressure;Samples;Min_cycle;Max_cycle;Signal;HPM_P1;HPM_P2
2022/01/30 00:01:47;;;;;;;;;;;77.10;2227.20;;;;;;4907369;29;20493;-83
2022/01/30 00:04:13;;;;;;;49.42;24.67;;;76.80;2227.20;;;;;;4909643;29;19914;-84
2022/01/30 00:06:39;;;;;;;;;;;52.00;2227.20;;;;;;4909732;29;20032;-85
2022/01/30 00:09:08;;;;;;;46.05;20.58;;;52.10;2227.20;;;;;;4891021;29;20272;-80
2022/01/30 00:11:37;;;;;;;46.35;20.25;;;52.00;2227.20;;;;;;4894187;29;20123;-85
2022/01/30 00:14:05;;;;;;;44.75;19.52;;;52.10;2227.20;;;;;;4911962;29;20387;-87
2022/01/30 00:16:34;;;;;;;43.70;18.75;;;76.80;2227.20;;;;;;4892677;29;20125;-79
2022/01/30 00:24:58;;;;;;;42.10;18.83;;;76.80;2227.20;;;;;;4864833;29;20115;-76
2022/01/30 00:27:33;;;;;;;;;;;77.10;2227.20;;;;;;4857787;29;20029;-82
2022/01/30 00:29:59;;;;;;;36.42;15.63;;;77.10;2227.20;;;;;;4859466;29;19908;-85
2022/01/30 00:32:25;;;;;;;35.63;15.90;;;77.30;2227.20;;;;;;4859720;29;20072;-86
2022/01/30 00:34:51;;;;;;;;;;;77.20;2227.20;;;;;;4859032;29;20033;-86
2022/01/30 00:37:17;;;;;;;39.13;15.90;;;77.20;2227.20;;;;;;4859667;29;20040;-84
2022/01/30 00:39:42;;;;;;;;;;;77.30;2227.20;;;;;;4844091;29;20140;-85
2022/01/30 00:42:08;;;;;;;33.83;15.25;;;77.10;2227.20;;;;;;4859583;29;20272;-83
2022/01/30 00:44:34;;;;;;;;;;;77.50;2227.20;;;;;;4859667;29;20094;-86
2022/01/30 00:47:02;;;;;;;36.55;15.93;;;77.60;2227.20;;;;;;4859073;29;19966;-86
2022/01/30 00:49:28;;;;;;;40.05;17.08;;;77.60;2227.20;;;;;;4858890;29;20052;-84
2022/01/30 00:51:53;;;;;;;35.58;17.85;;;77.50;2227.20;;;;;;4859214;29;20557;-86
2022/01/30 00:54:19;;;;;;;;;;;77.60;2227.20;;;;;;4859658;29;20040;-77
2022/01/30 00:56:45;;;;;;;39.33;17.08;;;77.50;2227.20;;;;;;4859057;29;20121;-84
2022/01/30 00:59:11;;;;;;;;;;;77.60;2227.20;;;;;;4904343;29;20063;-86
2022/01/30 01:01:37;;;;;;;39.40;18.13;;;77.60;2227.20;;;;;;4908802;29;20286;-75
2022/01/30 01:04:02;;;;;;;42.00;17.33;;;77.70;2227.20;;;;;;4889022;29;20045;-76
2022/01/30 01:06:28;;;;;;;41.85;18.55;;;102.40;2227.20;;;;;;4906725;29;20033;-86
2022/01/30 01:08:59;;;;;;;;;;;102.50;2227.20;;;;;;4911981;29;20025;-77
2022/01/30 01:24:48;;;;;;;30.77;15.52;;;102.40;2227.20;;;;;;4909103;29;20405;-85
2022/01/30 01:27:14;;;;;;;30.45;14.48;;;102.40;2227.20;;;;;;4907088;29;20028;-75
2022/01/30 01:29:39;;;;;;;30.05;13.90;;;77.70;2227.20;;;;;;4907934;29;20032;-77
2022/01/30 01:32:05;;;;;;;;;;;102.50;2227.20;;;;;;4908499;29;20111;-82
2022/01/30 01:34:36;;;;;;;32.95;14.60;;;77.70;2227.20;;;;;;4907744;29;19907;-84
2022/01/30 01:37:03;;;;;;;34.72;16.58;;;77.70;2227.20;;;;;;4905438;29;20028;-77
2022/01/30 01:39:29;;;;;;;34.17;14.90;;;77.70;2227.20;;;;;;4908834;29;20489;-86
2022/01/30 01:41:55;;;;;;;;;;;77.60;2227.20;;;;;;4900053;29;20449;-86
2022/01/30 01:44:34;;;;;;;30.65;13.65;;;77.60;2227.20;;;;;;4891755;29;19919;-76
2022/01/30 01:47:01;;;;;;;29.55;12.45;;;77.40;2227.20;;;;;;4898588;29;20032;-85
2022/01/30 01:49:30;;;;;;;34.85;13.55;;;77.20;2227.20;;;;;;4888607;29;20029;-76
2022/01/30 01:54:43;;;;;;;28.10;12.05;;;77.30;2227.20;;;;;;4907636;29;20035;-84
2022/01/30 01:57:09;;;;;;;31.92;14.63;;;77.40;2227.20;;;;;;4908636;29;20033;-86
2022/01/30 01:59:35;;;;;;;31.85;15.23;;;77.50;2227.20;;;;;;4906127;29;20079;-86
2022/01/30 02:02:02;;;;;;;28.60;13.70;;;77.60;2227.20;;;;;;4905132;29;20035;-83
2022/01/30 02:04:28;;;;;;;28.13;14.20;;;77.70;2227.20;;;;;;4908693;29;20062;-86
2022/01/30 02:07:44;;;;;;;30.75;14.00;;;77.70;2227.20;;;;;;4893586;29;20024;-79
2022/01/30 02:09:41;;;;;;;33.90;16.10;;;102.40;2227.20;;;;;;4913529;29;20041;-85
2022/01/30 02:12:15;;;;;;;29.83;14.23;;;102.40;2227.20;;;;;;4909333;29;20028;-86
2022/01/30 02:14:54;;;;;;;31.52;14.13;;;102.40;2227.20;;;;;;4892874;29;20035;-83
2022/01/30 02:25:43;;;;;;;34.67;12.57;;;102.60;2227.20;;;;;;4913912;29;20047;-77
2022/01/30 02:28:16;;;;;;;30.63;13.63;;;102.50;2227.20;;;;;;4907953;29;20044;-80
2022/01/30 02:30:54;;;;;;;30.52;12.18;;;102.40;2227.20;;;;;;4892583;29;20086;-86
2022/01/30 02:33:22;;;;;;;30.00;13.13;;;102.50;2227.20;;;;;;4911017;29;20016;-86
2022/01/30 02:35:48;;;;;;;27.70;12.00;;;102.50;2227.20;;;;;;4893791;29;20030;-86
2022/01/30 02:38:16;;;;;;;26.95;11.95;;;102.50;2227.20;;;;;;4909506;29;20036;-86
2022/01/30 02:40:44;;;;;;;28.95;11.88;;;102.50;2227.20;;;;;;4919159;29;20576;-81
2022/01/30 02:43:12;;;;;;;34.38;12.80;;;102.40;2227.20;;;;;;4913646;29;20111;-86
2022/01/30 02:45:45;;;;;;;26.33;13.02;;;102.50;2227.20;;;;;;4892309;29;20036;-86
2022/01/30 02:50:49;;;;;;;25.10;12.18;;;102.40;2227.20;;;;;;4910780;29;20024;-84
2022/01/30 02:53:15;;;;;;;31.73;14.15;;;102.60;2227.20;;;;;;4908964;29;20058;-86
2022/01/30 02:55:41;;;;;;;29.63;12.18;;;102.60;2227.20;;;;;;4908344;29;20536;-86
2022/01/30 02:58:07;;;;;;;;;;;102.60;2227.20;;;;;;4910727;29;20024;-86
2022/01/30 03:00:32;;;;;;;30.50;10.82;;;102.50;2227.20;;;;;;4889511;29;19908;-83
2022/01/30 03:02:58;;;;;;;;;;;102.50;2227.20;;;;;;4894983;29;20021;-85
2022/01/30 03:05:24;;;;;;;25.20;11.18;;;102.60;2227.20;;;;;;4916482;29;19967;-76
2022/01/30 03:07:52;;;;;;;23.15;13.27;;;102.60;2227.20;;;;;;4908028;29;20025;-76
2022/01/30 03:10:18;;;;;;;33.55;12.90;;;102.60;2227.20;;;;;;4909461;29;20039;-85
2022/01/30 03:12:44;;;;;;;30.65;12.77;;;102.70;2227.20;;;;;;4907758;29;20035;-83
2022/01/30 03:15:10;;;;;;;22.63;10.60;;;102.70;2227.20;;;;;;4891312;29;20021;-85
2022/01/30 03:17:35;;;;;;;;;;;102.90;2227.20;;;;;;4909710;29;20032;-85
2022/01/30 03:20:03;;;;;;;28.25;11.70;;;102.80;2227.20;;;;;;4909953;29;19918;-85
2022/01/30 03:22:29;;;;;;;25.30;10.50;;;102.70;2227.20;;;;;;4909665;29;20024;-86
2022/01/30 03:24:54;;;;;;;24.13;10.85;;;102.80;2227.20;;;;;;4911425;29;20032;-87
2022/01/30 03:27:20;;;;;;;22.55;9.57;;;102.70;2227.20;;;;;;4908968;29;20092;-85
2022/01/30 03:29:51;;;;;;;;;;;102.80;2227.20;;;;;;4907506;29;20028;-83
2022/01/30 03:32:17;;;;;;;36.17;12.27;;;102.90;2227.20;;;;;;4890117;29;19907;-76
2022/01/30 03:34:43;;;;;;;;;;;102.80;2227.20;;;;;;4907560;29;20070;-76
2022/01/30 03:37:09;;;;;;;28.05;11.38;;;102.80;2227.20;;;;;;4909528;29;19962;-78
2022/01/30 03:39:34;;;;;;;;;;;102.70;2227.20;;;;;;4910286;29;20051;-86
2022/01/30 03:42:00;;;;;;;27.15;10.98;;;102.70;2227.20;;;;;;4907169;29;19918;-85
2022/01/30 03:44:26;;;;;;;;;;;102.80;2227.20;;;;;;4912558;29;20036;-81
2022/01/30 03:46:51;;;;;;;21.67;10.88;;;102.60;2227.20;;;;;;4898416;29;19951;-79
2022/01/30 03:49:17;;;;;;;;;;;102.60;2227.20;;;;;;4908772;29;20049;-82
2022/01/30 03:51:43;;;;;;;30.85;10.90;;;102.60;2227.20;;;;;;4906989;29;20349;-82
2022/01/30 03:54:08;;;;;;;;;;;102.70;2227.20;;;;;;4907962;29;20104;-80
2022/01/30 03:56:34;;;;;;;21.20;10.93;;;102.70;2227.20;;;;;;4910012;29;20063;-85
2022/01/30 03:59:00;;;;;;;;;;;102.70;2227.20;;;;;;4891409;29;20024;-85
2022/01/30 04:01:25;;;;;;;20.58;10.15;;;102.80;2227.20;;;;;;4909203;29;19911;-83
2022/01/30 04:03:51;;;;;;;;;;;102.80;2227.20;;;;;;4909918;29;20028;-77
2022/01/30 04:06:17;;;;;;;23.27;11.05;;;102.80;2227.20;;;;;;4907806;29;19915;-77
2022/01/30 04:08:44;;;;;;;;;;;102.90;2227.20;;;;;;4915272;29;20028;-83
2022/01/30 04:11:10;;;;;;;20.67;8.38;;;102.80;2227.20;;;;;;4918043;29;19911;-85
2022/01/30 04:13:35;;;;;;;;;;;102.90;2227.20;;;;;;4910616;29;20032;-76
2022/01/30 04:16:01;;;;;;;26.55;10.23;;;102.90;2227.20;;;;;;4908109;29;20276;-84
2022/01/30 04:18:27;;;;;;;28.77;13.07;;;102.90;2227.20;;;;;;4909707;29;20497;-75
2022/01/30 04:20:53;;;;;;;26.63;12.35;;;103.00;2227.20;;;;;;4906907;29;20091;-85
2022/01/30 04:23:18;;;;;;;;;;;102.90;2227.20;;;;;;4905599;29;20047;-79
2022/01/30 04:25:44;;;;;;;25.90;10.77;;;102.90;2227.20;;;;;;4891805;29;19926;-83
2022/01/30 04:28:10;;;;;;;;;;;102.80;2227.20;;;;;;4890568;29;20087;-80
2022/01/30 04:30:36;;;;;;;29.27;11.02;;;102.90;2227.20;;;;;;4917301;29;20432;-84
2022/01/30 04:33:01;;;;;;;;;;;103.00;2227.20;;;;;;4915318;29;20103;-84
2022/01/30 04:35:30;;;;;;;27.45;10.95;;;103.00;2227.20;;;;;;4912049;29;19994;-84
2022/01/30 04:38:03;;;;;;;22.75;10.77;;;102.80;2227.20;;;;;;4906698;29;20051;-84
2022/01/30 04:41:04;;;;;;;24.65;11.27;;;103.00;2227.20;;;;;;4892359;29;21491;-85
2022/01/30 05:07:47;;;;;;;23.52;10.98;;;102.60;2227.20;;;;;;4840512;29;19920;-86
2022/01/30 05:10:13;;;;;;;26.52;10.88;;;102.50;2227.20;;;;;;4840459;29;20048;-85
2022/01/30 05:12:48;;;;;;;24.85;10.15;;;102.60;2227.20;;;;;;4840506;29;20034;-82
2022/01/30 05:15:17;;;;;;;30.30;11.27;;;102.70;2227.20;;;;;;4840000;29;20113;-85
2022/01/30 05:17:43;;;;;;;28.73;10.88;;;102.80;2227.20;;;;;;4840303;29;20464;-82
2022/01/30 05:20:10;;;;;;;24.35;11.18;;;102.70;2227.20;;;;;;4840097;29;20474;-84
2022/01/30 05:22:36;;;;;;;25.50;11.23;;;102.70;2227.20;;;;;;4839907;29;20030;-77
2022/01/30 05:25:03;;;;;;;26.48;10.32;;;102.60;2227.20;;;;;;4864254;29;20051;-85
2022/01/30 05:27:29;;;;;;;25.70;10.68;;;102.60;2227.20;;;;;;4889747;29;20119;-86
2022/01/30 05:29:56;;;;;;;28.25;11.25;;;102.60;2227.20;;;;;;4910785;29;20032;-86
2022/01/30 05:32:22;;;;;;;25.35;11.23;;;102.50;2227.20;;;;;;4905140;29;20020;-82
2022/01/30 05:34:48;;;;;;;23.88;10.30;;;102.60;2227.20;;;;;;4904741;29;20029;-79
2022/01/30 05:37:17;;;;;;;23.52;10.68;;;102.70;2227.20;;;;;;4908205;29;20029;-75
2022/01/30 05:39:44;;;;;;;30.67;12.50;;;102.70;2227.20;;;;;;4907641;29;20115;-86
2022/01/30 05:42:12;;;;;;;34.47;13.23;;;102.70;2227.20;;;;;;4916271;29;20456;-85
2022/01/30 05:44:49;;;;;;;31.65;13.43;;;102.70;2227.20;;;;;;4916142;29;20021;-83
2022/01/30 05:47:27;;;;;;;37.38;14.05;;;102.70;2227.20;;;;;;4916367;29;20516;-82
2022/01/30 05:49:53;;;;;;;28.80;11.35;;;102.80;2227.20;;;;;;4908734;29;20024;-78
2022/01/30 05:52:21;;;;;;;27.90;11.10;;;102.80;2227.20;;;;;;4889671;29;20060;-87
2022/01/30 05:54:48;;;;;;;31.00;11.73;;;102.80;2227.20;;;;;;4889198;29;20033;-78
2022/01/30 05:57:13;;;;;;;;;;;102.80;2227.20;;;;;;4905941;29;20032;-75
2022/01/30 05:59:39;;;;;;;24.20;10.10;;;102.80;2227.20;;;;;;4905556;29;19915;-86
2022/01/30 06:02:04;;;;;;;;;;;102.70;2227.20;;;;;;4907890;29;20020;-76
2022/01/30 06:04:30;;;;;;;26.38;11.07;;;102.80;2227.20;;;;;;4888636;29;19965;-85
2022/01/30 06:06:57;;;;;;;;;;;102.90;2227.20;;;;;;4908076;29;20032;-80
2022/01/30 06:09:23;;;;;;;17.40;8.40;;;102.80;2227.20;;;;;;4906284;29;19950;-86
2022/01/30 06:11:50;;;;;;;27.70;11.52;;;102.60;2227.20;;;;;;4889608;29;20052;-87
2022/01/30 06:14:24;;;;;;;26.58;12.45;;;102.40;2227.20;;;;;;4907486;29;20028;-84
2022/01/30 06:16:53;;;;;;;22.08;10.30;;;102.60;2227.20;;;;;;4904572;29;20029;-85
2022/01/30 06:19:19;;;;;;;24.73;10.15;;;102.60;2227.20;;;;;;4888608;29;20048;-85
2022/01/30 06:21:46;;;;;;;25.35;11.30;;;102.60;2227.20;;;;;;4908255;29;20036;-77
2022/01/30 06:24:11;;;;;;;24.05;11.38;;;102.70;2227.20;;;;;;4915785;29;20495;-79
2022/01/30 06:26:37;;;;;;;27.70;10.52;;;102.70;2227.20;;;;;;4913227;29;20032;-76
2022/01/30 06:29:03;;;;;;;;;;;102.80;2227.20;;;;;;4907738;29;20032;-81
2022/01/30 06:31:29;;;;;;;28.90;11.75;;;102.80;2227.20;;;;;;4904238;29;19947;-81
2022/01/30 06:33:54;;;;;;;;;;;102.80;2227.20;;;;;;4916134;29;20099;-77
2022/01/30 06:36:20;;;;;;;30.85;12.10;;;102.80;2227.20;;;;;;4915958;29;19946;-84
2022/01/30 06:38:47;;;;;;;;;;;102.70;2227.20;;;;;;4896773;29;20044;-82
2022/01/30 06:41:13;;;;;;;21.23;10.13;;;102.70;2227.20;;;;;;4905742;29;19915;-85
2022/01/30 06:43:39;;;;;;;27.27;12.32;;;102.70;2227.20;;;;;;4890614;29;20084;-85
2022/01/30 06:46:05;;;;;;;31.33;12.32;;;102.90;2227.20;;;;;;4913122;29;20032;-84
2022/01/30 06:48:31;;;;;;;32.35;12.73;;;102.90;2227.20;;;;;;4907906;29;20068;-79
2022/01/30 06:50:56;;;;;;;;;;;102.90;2227.20;;;;;;4893584;29;20036;-82
2022/01/30 06:53:24;;;;;;;35.40;13.55;;;102.80;2227.20;;;;;;4901735;29;19990;-75
2022/01/30 06:55:50;;;;;;;33.67;13.60;;;102.90;2227.20;;;;;;4902075;29;20103;-80
2022/01/30 06:58:16;;;;;;;;;;;102.80;2227.20;;;;;;4919566;29;20052;-87
2022/01/30 07:00:42;;;;;;;39.80;17.25;;;102.70;2227.20;;;;;;4916470;29;20395;-86
2022/01/30 07:03:07;;;;;;;;;;;102.80;2227.20;;;;;;4911696;29;20413;-86
2022/01/30 07:05:33;;;;;;;34.65;14.88;;;102.80;2227.20;;;;;;4908983;29;19915;-86
2022/01/30 07:07:59;;;;;;;31.27;16.90;;;102.90;2227.20;;;;;;4912944;29;20083;-82
2022/01/30 07:10:25;;;;;;;;;;;103.00;2227.20;;;;;;4918740;29;20071;-79
2022/01/30 07:12:50;;;;;;;22.98;11.13;;;103.00;2227.20;;;;;;4892777;29;19907;-82
2022/01/30 07:15:16;;;;;;;;;;;103.00;2227.20;;;;;;4909205;29;20032;-84
2022/01/30 07:17:42;;;;;;;28.42;14.10;;;103.00;2227.20;;;;;;4910310;29;19907;-80
2022/01/30 07:20:09;;;;;;;33.83;14.55;;;102.90;2227.20;;;;;;4907915;29;20472;-80
2022/01/30 07:22:35;;;;;;;30.67;14.05;;;102.90;2227.20;;;;;;4918414;29;20036;-85
2022/01/30 07:25:02;;;;;;;30.75;11.80;;;103.00;2227.20;;;;;;4905480;29;20020;-81
2022/01/30 07:27:28;;;;;;;32.45;14.07;;;103.00;2227.20;;;;;;4893854;29;20041;-80
2022/01/30 07:29:54;;;;;;;29.63;14.25;;;103.00;2227.20;;;;;;4910686;29;20049;-76
2022/01/30 07:32:20;;;;;;;;;;;103.00;2227.20;;;;;;4908279;29;20024;-82
2022/01/30 07:34:49;;;;;;;20.25;10.35;;;103.00;2227.20;;;;;;4907598;29;19907;-76
2022/01/30 07:37:15;;;;;;;31.50;17.17;;;103.00;2227.20;;;;;;4899920;29;20108;-83
2022/01/30 07:39:42;;;;;;;25.30;13.18;;;103.10;2227.20;;;;;;4883207;29;20107;-84
2022/01/30 07:42:08;;;;;;;26.10;12.65;;;103.20;2227.20;;;;;;4899974;29;20060;-81
2022/01/30 07:44:34;;;;;;;69.25;30.30;;;103.30;2227.20;;;;;;4899516;29;20063;-81
2022/01/30 07:47:00;;;;;;;68.85;36.50;;;128.00;2252.80;;;;;;4900070;29;20482;-84
2022/01/30 07:49:25;;;;;;;48.45;27.85;;;128.20;2252.80;;;;;;4899187;29;20093;-89
2022/01/30 07:51:51;;;;;;;;;;;128.30;2252.80;;;;;;4883658;29;20033;-81
2022/01/30 07:54:17;;;;;;;31.90;14.88;;;128.40;2252.80;;;;;;4899594;29;19959;-80
2022/01/30 07:56:43;;;;;;;;;;;128.40;2252.80;;;;;;4900217;29;20024;-85
2022/01/30 07:59:09;;;;;;;22.43;10.07;;;128.40;2252.80;;;;;;4899386;29;19907;-85
2022/01/30 08:01:34;;;;;;;;;;;128.40;2252.80;;;;;;4899205;29;20028;-82
2022/01/30 08:04:00;;;;;;;20.83;9.98;;;128.40;2252.80;;;;;;4882635;29;19998;-90
2022/01/30 08:06:26;;;;;;;;;;;128.40;2252.80;;;;;;4899786;29;20047;-80
2022/01/30 08:08:52;;;;;;;34.65;13.70;;;128.60;2252.80;;;;;;4899287;29;20285;-84
2022/01/30 08:11:17;;;;;;;;;;;128.60;2252.80;;;;;;4899992;29;20035;-83
2022/01/30 08:13:43;;;;;;;26.00;13.73;;;128.80;2252.80;;;;;;4899354;29;19915;-85
2022/01/30 08:16:09;;;;;;;;;;;128.90;2252.80;;;;;;4899657;29;20081;-88
2022/01/30 08:18:37;;;;;;;26.33;12.32;;;128.90;2252.80;;;;;;4899327;29;19907;-89
2022/01/30 08:21:04;;;;;;;37.10;16.02;;;128.90;2252.80;;;;;;4882585;29;20040;-79
2022/01/30 08:23:32;;;;;;;64.55;30.00;;;153.60;2252.80;;;;;;4901975;29;20198;-81
2022/01/30 08:25:58;;;;;;;51.78;22.85;;;128.90;2252.80;;;;;;4890581;29;20123;-74
2022/01/30 08:28:23;;;;;;;45.58;21.35;;;128.90;2252.80;;;;;;4892871;29;20111;-83
2022/01/30 08:30:50;;;;;;;;;;;153.60;2252.80;;;;;;4883440;29;20036;-81
2022/01/30 08:33:16;;;;;;;23.88;9.82;;;153.70;2252.80;;;;;;4898768;29;19915;-75
2022/01/30 08:35:42;;;;;;;;;;;153.80;2252.80;;;;;;4899397;29;20430;-77
2022/01/30 08:38:10;;;;;;;28.92;11.85;;;153.90;2252.80;;;;;;4881820;29;19915;-92
2022/01/30 08:40:35;;;;;;;18.35;8.27;;;154.00;2252.80;;;;;;4897696;29;20033;-80
2022/01/30 08:43:02;;;;;;;;;;;154.10;2252.80;;;;;;4882432;29;20045;-77
2022/01/30 08:45:27;;;;;;;17.42;7.50;;;154.30;2227.20;;;;;;4881881;29;20018;-90
2022/01/30 08:47:53;;;;;;;;;;;154.40;2176.00;;;;;;4898076;29;20556;-85
2022/01/30 08:50:20;;;;;;;17.23;9.07;;;179.30;2073.60;;;;;;4881899;29;19918;-76
2022/01/30 08:52:47;;;;;;;23.98;11.65;;;179.40;2073.60;;;;;;4881443;29;20051;-76
2022/01/30 08:55:14;;;;;;;19.80;8.88;;;179.50;2073.60;;;;;;4881704;29;20088;-79
2022/01/30 08:57:40;;;;;;;15.48;7.22;;;179.60;2048.00;;;;;;4882011;29;20025;-88
2022/01/30 09:00:07;;;;;;;;;;;179.80;2022.40;;;;;;4898684;29;20031;-77
2022/01/30 09:02:33;;;;;;;19.67;8.35;;;180.00;1996.80;;;;;;4888713;29;19954;-75
2022/01/30 09:04:59;;;;;;;;;;;180.10;2022.40;;;;;;4907183;29;20075;-75
2022/01/30 09:07:24;;;;;;;14.50;5.18;;;204.90;1971.20;;;;;;4916454;29;19930;-76
2022/01/30 09:09:50;;;;;;;;;;;205.00;1920.00;;;;;;4907290;29;20459;-84
2022/01/30 09:12:16;;;;;;;13.30;6.85;;;205.10;1843.20;;;;;;4909300;29;19922;-85
2022/01/30 09:14:43;;;;;;;13.48;5.95;;;205.20;1843.20;;;;;;4915618;29;20091;-83
2022/01/30 09:17:14;;;;;;;16.85;7.28;;;205.40;1766.40;;;;;;4914661;29;20488;-86
2022/01/30 09:19:42;;;;;;;14.38;6.45;;;205.50;1792.00;;;;;;4906144;29;20489;-84
2022/01/30 09:22:09;;;;;;;16.50;8.25;;;205.70;1766.40;;;;;;4888246;29;20029;-75
2022/01/30 09:24:36;;;;;;;17.35;7.60;;;230.50;1740.80;;;;;;4892559;29;20397;-83
2022/01/30 09:27:03;;;;;;;20.23;7.28;;;230.60;1740.80;;;;;;4887303;29;20036;-82
2022/01/30 09:29:29;;;;;;;16.20;7.32;;;230.60;1715.20;;;;;;4908254;29;20016;-75
2022/01/30 09:31:56;;;;;;;16.48;7.18;;;230.70;1740.80;;;;;;4903175;29;20092;-84
2022/01/30 09:34:22;;;;;;;11.38;5.47;;;230.60;1715.20;;;;;;4904439;29;20020;-80
2022/01/30 09:36:48;;;;;;;;;;;230.60;1740.80;;;;;;4897390;29;20118;-79
2022/01/30 09:39:14;;;;;;;11.35;5.82;;;230.60;1766.40;;;;;;4908213;29;19967;-83
2022/01/30 09:41:40;;;;;;;;;;;230.60;1792.00;;;;;;4906146;29;20452;-82
2022/01/30 09:44:07;;;;;;;23.02;9.70;;;230.60;1792.00;;;;;;4888729;29;20002;-81
2022/01/30 09:46:33;;;;;;;20.35;8.07;;;230.50;1843.20;;;;;;4906869;29;20085;-76
2022/01/30 09:49:00;;;;;;;;;;;230.50;1868.80;;;;;;4907149;29;20020;-76
2022/01/30 09:51:25;;;;;;;19.52;8.52;;;230.50;1868.80;;;;;;4906161;29;20356;-79
2022/01/30 09:53:51;;;;;;;;;;;230.40;1920.00;;;;;;4892107;29;20040;-80
2022/01/30 09:56:18;;;;;;;15.10;7.78;;;230.40;1920.00;;;;;;4908675;29;19915;-79
2022/01/30 09:58:45;;;;;;;32.40;12.65;;;205.70;1920.00;;;;;;4888000;29;20047;-85
2022/01/30 10:01:11;;;;;;;9.85;5.55;;;205.70;1945.60;;;;;;4907546;29;20024;-84
2022/01/30 10:03:37;;;;;;;;;;;205.70;1971.20;;;;;;4905827;29;20091;-87
2022/01/30 10:06:17;;;;;;;11.20;5.50;;;205.70;1971.20;;;;;;4905409;29;19915;-83
2022/01/30 10:08:45;;;;;;;12.00;6.35;;;205.70;2022.40;;;;;;4907486;29;20039;-83
2022/01/30 10:14:11;;;;;;;11.55;5.07;;;205.60;2048.00;;;;;;4916536;29;20498;-81
2022/01/30 10:16:42;;;;;;;13.50;6.20;;;205.60;2022.40;;;;;;4916402;29;20082;-79
2022/01/30 10:19:10;;;;;;;16.05;6.70;;;205.70;1996.80;;;;;;4900137;29;20060;-79
2022/01/30 10:21:36;;;;;;;13.43;6.60;;;205.70;1971.20;;;;;;4916338;29;20029;-81
2022/01/30 10:24:21;;;;;;;18.17;6.32;;;205.60;1971.20;;;;;;4907851;29;20040;-75
2022/01/30 10:26:47;;;;;;;14.82;7.32;;;205.70;1971.20;;;;;;4900872;29;20055;-80
2022/01/30 10:29:23;;;;;;;;;;;230.40;1971.20;;;;;;4901509;29;20029;-81
2022/01/30 10:32:05;;;;;;;13.50;6.22;;;230.40;1945.60;;;;;;4900825;29;19918;-74
2022/01/30 10:34:33;;;;;;;15.90;6.07;;;230.40;1945.60;;;;;;4900996;29;20111;-78
2022/01/30 10:37:12;;;;;;;18.55;7.78;;;230.40;1920.00;;;;;;4884381;29;20029;-80
2022/01/30 10:40:19;;;;;;;15.45;7.78;;;230.40;1920.00;;;;;;4900951;29;20052;-76
2022/01/30 10:42:50;;;;;;;16.67;7.53;;;230.40;1894.40;;;;;;4899744;29;20021;-80
2022/01/30 10:45:27;;;;;;;17.27;7.65;;;230.40;1920.00;;;;;;4900665;29;20037;-81
2022/01/30 10:48:07;;;;;;;16.48;8.13;;;230.40;1920.00;;;;;;4900749;29;20028;-79
2022/01/30 10:50:33;;;;;;;14.90;7.53;;;230.40;1945.60;;;;;;4900724;29;20036;-76
2022/01/30 10:53:02;;;;;;;;;;;230.40;1971.20;;;;;;4901355;29;20393;-75
2022/01/30 10:55:44;;;;;;;16.35;8.00;;;230.40;1971.20;;;;;;4900372;29;20283;-75
2022/01/30 10:58:21;;;;;;;17.35;7.55;;;230.40;1971.20;;;;;;4900572;29;20024;-76
2022/01/30 11:00:55;;;;;;;17.13;7.63;;;230.40;1996.80;;;;;;4900586;29;20029;-81
2022/01/30 11:03:50;;;;;;;15.70;7.45;;;205.70;2022.40;;;;;;4900449;29;20032;-78
2022/01/30 11:06:16;;;;;;;15.77;7.03;;;205.70;2022.40;;;;;;4900180;29;20032;-78
2022/01/30 11:08:46;;;;;;;;;;;230.60;1996.80;;;;;;4902731;29;20388;-79
2022/01/30 11:19:11;;;;;;;14.93;7.15;;;231.10;1996.80;;;;;;4919349;29;20039;-78
2022/01/30 11:21:39;;;;;;;48.35;23.50;;;256.30;1894.40;;;;;;4918810;29;20060;-76
2022/01/30 11:24:05;;;;;;;17.25;8.40;;;256.70;1817.60;;;;;;4918744;29;20020;-80
2022/01/30 11:26:32;;;;;;;15.38;8.18;;;281.80;1792.00;;;;;;4913439;29;20040;-76
2022/01/30 11:28:59;;;;;;;14.45;7.25;;;282.10;1766.40;;;;;;4893689;29;20021;-80
2022/01/30 11:31:25;;;;;;;18.10;8.05;;;282.40;1740.80;;;;;;4906450;29;20465;-75
2022/01/30 11:33:53;;;;;;;24.48;12.52;;;307.20;1766.40;;;;;;4899891;29;20549;-76
2022/01/30 11:36:21;;;;;;;28.45;15.20;;;307.50;1740.80;;;;;;4898279;29;20059;-80
2022/01/30 11:38:47;;;;;;;24.83;10.43;;;307.60;1715.20;;;;;;4899590;29;20116;-75
2022/01/30 11:41:16;;;;;;;25.80;11.18;;;307.80;1715.20;;;;;;4899771;29;20052;-80
2022/01/30 11:44:19;;;;;;;17.20;8.55;;;308.10;1689.60;;;;;;4899593;29;20386;-77
2022/01/30 11:46:58;;;;;;;24.42;10.80;;;307.80;1689.60;;;;;;4899665;29;20041;-80
2022/01/30 11:49:41;;;;;;;25.02;11.18;;;307.90;1689.60;;;;;;4899827;29;20021;-76
2022/01/30 11:52:11;;;;;;;22.77;10.52;;;332.80;1689.60;;;;;;4903451;29;20032;-80
2022/01/30 11:54:37;;;;;;;16.67;7.63;;;332.90;1664.00;;;;;;4890450;29;20040;-81
2022/01/30 11:57:27;;;;;;;14.82;6.22;;;333.00;1638.40;;;;;;4908847;29;20481;-85
2022/01/30 12:00:00;;;;;;;19.10;8.45;;;332.90;1638.40;;;;;;4908924;29;20018;-80
2022/01/30 12:02:36;;;;;;;17.40;7.70;;;333.00;1638.40;;;;;;4909239;29;20020;-78
2022/01/30 12:05:05;;;;;;;16.77;7.38;;;333.20;1664.00;;;;;;4910249;29;20020;-80
2022/01/30 12:07:32;;;;;;;14.43;6.97;;;333.20;1612.80;;;;;;4909644;29;20039;-78
2022/01/30 12:10:16;;;;;;;15.93;7.80;;;333.10;1612.80;;;;;;4914894;29;20054;-76
2022/01/30 12:13:37;;;;;;;15.82;6.75;;;333.40;1638.40;;;;;;4916130;29;20023;-77
2022/01/30 12:16:03;;;;;;;8.50;4.68;;;333.50;1612.80;;;;;;4839021;29;20080;-79
2022/01/30 12:18:44;;;;;;;9.18;4.32;;;333.40;1612.80;;;;;;4841214;29;20061;-83
2022/01/30 12:21:14;;;;;;;11.50;5.47;;;333.40;1612.80;;;;;;4841033;29;20162;-80
2022/01/30 12:23:42;;;;;;;10.32;5.43;;;333.60;1612.80;;;;;;4838078;29;20034;-74
2022/01/30 12:26:19;;;;;;;8.90;4.53;;;333.50;1612.80;;;;;;4832956;29;20139;-75
2022/01/30 12:28:50;;;;;;;10.48;4.60;;;333.50;1612.80;;;;;;4840841;29;20483;-79
2022/01/30 12:31:34;;;;;;;17.08;6.93;;;333.40;1638.40;;;;;;4841035;29;20120;-80
2022/01/30 12:34:09;;;;;;;12.45;6.00;;;333.50;1638.40;;;;;;4840656;29;20018;-79
2022/01/30 12:36:50;;;;;;;15.13;5.78;;;333.40;1664.00;;;;;;4840393;29;20510;-80
2022/01/30 12:39:18;;;;;;;13.38;6.57;;;333.00;1689.60;;;;;;4838390;29;20053;-81
2022/01/30 12:41:45;;;;;;;14.27;7.65;;;332.90;1715.20;;;;;;4839922;29;20122;-78
2022/01/30 12:44:13;;;;;;;19.17;8.85;;;308.00;1715.20;;;;;;4840061;29;20074;-79
2022/01/30 12:47:05;;;;;;;53.35;20.30;;;307.80;1740.80;;;;;;4839671;29;20094;-77
2022/01/30 12:49:39;;;;;;;12.25;4.18;;;307.70;1766.40;;;;;;4869106;29;20123;-83
2022/01/30 12:52:06;;;;;;;12.07;4.40;;;307.70;1766.40;;;;;;4887238;29;20061;-85
2022/01/30 12:54:40;;;;;;;8.45;3.85;;;307.60;1792.00;;;;;;4908944;29;20073;-80
2022/01/30 12:57:08;;;;;;;7.50;3.63;;;307.50;1715.20;;;;;;4909952;29;20548;-75
2022/01/30 12:59:34;;;;;;;8.65;3.75;;;307.40;1715.20;;;;;;4896710;29;20040;-83
2022/01/30 13:02:10;;;;;;;8.32;3.60;;;307.30;1740.80;;;;;;4916859;29;20159;-83
2022/01/30 13:04:36;;;;;;;;;;;307.20;1740.80;;;;;;4911182;29;20058;-76
2022/01/30 13:07:03;;;;;;;15.37;4.27;;;282.40;1766.40;;;;;;4907289;29;20015;-82
2022/01/30 13:09:31;;;;;;;20.48;7.55;;;282.00;1843.20;;;;;;4906256;29;20111;-77
2022/01/30 13:12:01;;;;;;;14.00;5.72;;;282.00;1868.80;;;;;;4908961;29;21097;-82
2022/01/30 13:14:37;;;;;;;13.02;4.97;;;282.00;1868.80;;;;;;4906627;29;20032;-75
2022/01/30 13:17:04;;;;;;;15.47;5.93;;;282.00;1868.80;;;;;;4899447;29;20055;-76
2022/01/30 13:19:35;;;;;;;18.27;6.45;;;282.00;1843.20;;;;;;4916539;29;20035;-80
2022/01/30 13:22:04;;;;;;;13.35;4.85;;;282.00;1868.80;;;;;;4907528;29;20031;-75
2022/01/30 13:24:30;;;;;;;14.45;4.70;;;282.10;1817.60;;;;;;4909892;29;20800;-74
2022/01/30 13:27:04;;;;;;;17.63;4.40;;;282.00;1766.40;;;;;;4909868;29;20043;-75
2022/01/30 13:29:34;;;;;;;30.33;4.50;;;282.10;1740.80;;;;;;4905959;29;20025;-75
2022/01/30 13:32:01;;;;;;;30.65;6.22;;;282.20;1715.20;;;;;;4905973;29;20028;-76
2022/01/30 13:34:29;;;;;;;26.90;7.57;;;282.20;1689.60;;;;;;4904698;29;20115;-74
2022/01/30 13:37:05;;;;;;;43.40;6.53;;;282.00;1740.80;;;;;;4905285;29;20033;-74